createdAt,value
2019-01-20T00:01:55.701Z,87.20
2019-01-20T00:04:26.731Z,87.10
2019-01-20T00:06:57.259Z,87.10
2019-01-20T00:09:27.891Z,87.00
2019-01-20T00:11:58.931Z,87.50
2019-01-20T00:14:29.875Z,87.30
2019-01-20T00:17:00.564Z,87.10
2019-01-20T00:19:31.549Z,87.60
2019-01-20T00:22:02.154Z,87.60
2019-01-20T00:24:32.823Z,87.80
2019-01-20T00:27:03.751Z,89.10
2019-01-20T00:29:34.646Z,88.30
2019-01-20T00:32:05.228Z,88.20
2019-01-20T00:34:35.701Z,88.40
2019-01-20T00:37:06.682Z,88.60
2019-01-20T00:39:37.653Z,88.40
2019-01-20T00:42:08.176Z,88.00
2019-01-20T00:44:38.753Z,88.00
2019-01-20T00:47:09.627Z,88.90
2019-01-20T00:49:40.490Z,88.10
2019-01-20T00:52:11.108Z,88.60
2019-01-20T00:54:41.772Z,88.20
2019-01-20T00:57:12.807Z,88.10
2019-01-20T00:59:43.163Z,88.00
2019-01-20T01:02:14.213Z,88.30
2019-01-20T01:04:45.145Z,88.50
2019-01-20T01:07:15.851Z,88.40
2019-01-20T01:09:46.442Z,87.80
2019-01-20T01:12:18.372Z,88.40
2019-01-20T01:14:49.022Z,88.50
2019-01-20T01:17:19.809Z,88.70
2019-01-20T01:19:50.782Z,88.60
2019-01-20T01:22:21.241Z,88.30
2019-01-20T01:24:51.902Z,88.20
2019-01-20T01:27:22.509Z,88.90
2019-01-20T01:29:53.067Z,89.10
2019-01-20T01:32:23.532Z,88.90
2019-01-20T01:34:54.472Z,89.40
2019-01-20T01:37:25.210Z,89.20
2019-01-20T01:39:55.998Z,89.10
2019-01-20T01:42:26.837Z,89.00
2019-01-20T01:44:57.305Z,88.80
2019-01-20T01:47:27.877Z,89.00
2019-01-20T01:49:58.384Z,89.20
2019-01-20T01:52:29.404Z,88.50
2019-01-20T01:54:59.987Z,88.70
2019-01-20T01:57:30.454Z,89.00
2019-01-20T02:00:00.886Z,89.30
2019-01-20T02:02:31.454Z,90.00
2019-01-20T02:05:02.080Z,89.40
2019-01-20T02:07:33.178Z,89.20
2019-01-20T02:10:03.918Z,89.50
2019-01-20T02:12:34.854Z,89.80
2019-01-20T02:15:07.314Z,89.50
2019-01-20T02:17:38.010Z,89.50
2019-01-20T02:20:11.273Z,89.60
2019-01-20T02:22:41.940Z,89.80
2019-01-20T02:25:13.014Z,89.50
2019-01-20T02:27:44.065Z,89.40
2019-01-20T02:30:23.681Z,90.00
2019-01-20T02:32:54.305Z,90.10
2019-01-20T02:35:25.178Z,89.80
2019-01-20T02:37:55.749Z,90.00
2019-01-20T02:40:26.210Z,90.10
2019-01-20T02:42:56.674Z,90.40
2019-01-20T02:45:27.242Z,89.90
2019-01-20T02:47:57.641Z,89.80
2019-01-20T02:50:28.297Z,90.10
2019-01-20T02:52:58.877Z,90.30
2019-01-20T02:55:29.383Z,90.20
2019-01-20T02:58:01.963Z,90.10
2019-01-20T03:00:32.454Z,90.00
2019-01-20T03:03:03.202Z,90.00
2019-01-20T03:05:33.778Z,90.20
2019-01-20T03:08:04.401Z,90.20
2019-01-20T03:10:35.104Z,90.20
2019-01-20T03:13:06.181Z,90.10
2019-01-20T03:15:36.963Z,90.10
2019-01-20T03:18:07.792Z,90.00
2019-01-20T03:20:38.798Z,90.00
2019-01-20T03:23:09.589Z,90.10
2019-01-20T03:25:40.055Z,90.10
2019-01-20T03:28:10.585Z,90.00
2019-01-20T03:30:41.068Z,90.00
2019-01-20T03:33:11.924Z,90.10
2019-01-20T03:35:42.620Z,90.20
2019-01-20T03:38:13.223Z,90.20
2019-01-20T03:40:43.899Z,90.30
2019-01-20T03:43:14.779Z,90.10
2019-01-20T03:45:45.263Z,90.20
2019-01-20T03:48:15.848Z,90.10
2019-01-20T03:50:46.509Z,90.10
2019-01-20T03:53:17.207Z,90.10
2019-01-20T03:55:47.929Z,90.10
2019-01-20T03:58:18.554Z,90.10
2019-01-20T04:00:49.091Z,90.00
2019-01-20T04:03:20.039Z,90.00
2019-01-20T04:05:50.681Z,89.80
2019-01-20T04:08:21.345Z,90.10
2019-01-20T04:10:52.242Z,90.00
2019-01-20T04:13:22.801Z,90.00
2019-01-20T04:15:53.241Z,90.10
2019-01-20T04:18:24.225Z,90.30
2019-01-20T04:20:55.169Z,90.10
2019-01-20T04:23:26.105Z,90.10
2019-01-20T04:25:57.057Z,90.10
2019-01-20T04:28:27.955Z,90.20
2019-01-20T04:30:58.630Z,90.40
2019-01-20T04:33:29.386Z,90.30
2019-01-20T04:35:59.878Z,90.30
2019-01-20T04:38:30.420Z,90.20
2019-01-20T04:41:00.990Z,90.20
2019-01-20T04:43:31.394Z,90.30
2019-01-20T04:46:02.202Z,90.40
2019-01-20T04:48:32.537Z,90.10
2019-01-20T04:51:03.200Z,90.20
2019-01-20T04:53:33.815Z,90.20
2019-01-20T04:56:05.032Z,90.20
2019-01-20T04:58:35.823Z,90.10
2019-01-20T05:01:06.413Z,90.20
2019-01-20T05:03:37.194Z,90.20
2019-01-20T05:06:07.922Z,90.10
2019-01-20T05:08:38.607Z,90.20
2019-01-20T05:11:09.286Z,90.10
2019-01-20T05:13:39.870Z,90.20
2019-01-20T05:16:10.470Z,90.20
2019-01-20T05:18:41.014Z,90.30
2019-01-20T05:21:11.566Z,90.40
2019-01-20T05:23:42.584Z,90.30
2019-01-20T05:26:13.350Z,90.10
2019-01-20T05:28:44.263Z,90.20
2019-01-20T05:31:14.785Z,90.30
2019-01-20T05:33:45.293Z,90.30
2019-01-20T05:36:15.679Z,90.30
2019-01-20T05:38:46.609Z,90.20
2019-01-20T05:41:17.816Z,90.40
2019-01-20T05:43:48.458Z,90.40
2019-01-20T05:46:18.924Z,90.30
2019-01-20T05:48:49.632Z,90.30
2019-01-20T05:51:20.288Z,90.40
2019-01-20T05:53:50.778Z,90.30
2019-01-20T05:56:21.541Z,90.40
2019-01-20T05:58:51.932Z,90.40
2019-01-20T06:01:22.528Z,90.30
2019-01-20T06:03:53.125Z,90.20
2019-01-20T06:06:23.636Z,90.40
2019-01-20T06:08:54.421Z,90.60
2019-01-20T06:11:25.041Z,90.20
2019-01-20T06:13:55.787Z,90.20
2019-01-20T06:16:26.385Z,90.30
2019-01-20T06:18:57.001Z,90.30
2019-01-20T06:21:27.802Z,90.20
2019-01-20T06:23:58.278Z,90.30
2019-01-20T06:26:28.882Z,90.40
2019-01-20T06:28:59.469Z,90.20
2019-01-20T06:31:30.035Z,90.30
2019-01-20T06:34:00.605Z,90.20
2019-01-20T06:36:31.239Z,90.30
2019-01-20T06:39:01.641Z,90.20
2019-01-20T06:41:32.309Z,90.30
2019-01-20T06:44:02.914Z,90.30
2019-01-20T06:46:33.421Z,90.30
2019-01-20T06:49:04.449Z,90.30
2019-01-20T06:51:35.199Z,90.40
2019-01-20T06:54:05.787Z,90.30
2019-01-20T06:56:36.253Z,90.30
2019-01-20T06:59:06.885Z,90.30
2019-01-20T07:01:37.920Z,90.30
2019-01-20T07:04:08.692Z,90.30
2019-01-20T07:06:38.935Z,90.30
2019-01-20T07:09:09.469Z,90.30
2019-01-20T07:11:40.046Z,90.30
2019-01-20T07:14:10.505Z,90.20
2019-01-20T07:16:40.932Z,90.30
2019-01-20T07:19:11.476Z,90.40
2019-01-20T07:21:42.058Z,90.30
2019-01-20T07:24:12.698Z,90.30
2019-01-20T07:26:43.179Z,90.20
2019-01-20T07:29:14.206Z,90.30
2019-01-20T07:31:45.140Z,90.30
2019-01-20T07:34:15.454Z,90.20
2019-01-20T07:36:46.495Z,90.30
2019-01-20T07:39:17.140Z,90.40
2019-01-20T07:41:48.150Z,90.40
2019-01-20T07:44:18.711Z,90.50
2019-01-20T07:46:49.184Z,90.70
2019-01-20T07:49:20.083Z,90.30
2019-01-20T07:51:51.103Z,90.40
2019-01-20T07:54:21.842Z,90.40
2019-01-20T07:56:52.832Z,90.40
2019-01-20T07:59:24.722Z,90.30
2019-01-20T08:01:55.558Z,90.70
2019-01-20T08:04:26.153Z,90.30
2019-01-20T08:06:56.699Z,90.30
2019-01-20T08:09:27.732Z,90.40
2019-01-20T08:11:58.486Z,90.60
2019-01-20T08:14:29.598Z,90.40
2019-01-20T08:17:00.242Z,90.40
2019-01-20T08:19:31.272Z,90.50
2019-01-20T08:22:01.958Z,90.50
2019-01-20T08:24:32.447Z,90.50
2019-01-20T08:27:03.197Z,90.50
2019-01-20T08:29:33.911Z,90.40
2019-01-20T08:32:04.593Z,90.50
2019-01-20T08:34:35.466Z,90.40
2019-01-20T08:37:06.184Z,90.50
2019-01-20T08:39:36.377Z,90.50
2019-01-20T08:42:06.564Z,90.50
2019-01-20T08:44:36.907Z,90.40
2019-01-20T08:47:12.172Z,90.40
2019-01-20T08:49:42.571Z,90.40
2019-01-20T08:52:12.977Z,90.50
2019-01-20T08:54:43.646Z,90.50
2019-01-20T08:57:14.730Z,90.60
2019-01-20T08:59:45.337Z,90.50
2019-01-20T09:02:15.999Z,90.50
2019-01-20T09:04:46.672Z,90.50
2019-01-20T09:07:17.669Z,90.50
2019-01-20T09:09:48.596Z,90.60
2019-01-20T09:12:19.205Z,90.70
2019-01-20T09:14:49.578Z,90.80
2019-01-20T09:17:20.185Z,90.90
2019-01-20T09:19:51.041Z,90.90
2019-01-20T09:22:21.687Z,91.00
2019-01-20T09:24:52.438Z,90.80
2019-01-20T09:27:22.941Z,90.60
2019-01-20T09:29:53.835Z,90.80
2019-01-20T09:32:24.239Z,90.80
2019-01-20T09:34:55.031Z,90.70
2019-01-20T09:37:25.723Z,90.80
2019-01-20T09:39:56.097Z,90.90
2019-01-20T09:42:26.689Z,90.80
2019-01-20T09:44:57.105Z,90.90
2019-01-20T09:47:27.726Z,90.90
2019-01-20T09:49:58.336Z,90.80
2019-01-20T09:52:28.793Z,90.90
2019-01-20T09:54:59.545Z,90.80
2019-01-20T09:57:30.331Z,90.90
2019-01-20T10:00:01.437Z,91.00
2019-01-20T10:02:32.246Z,91.10
2019-01-20T10:05:02.575Z,91.20
2019-01-20T10:07:33.055Z,91.10
2019-01-20T10:10:03.829Z,91.20
2019-01-20T10:12:34.696Z,91.20
2019-01-20T10:15:08.694Z,91.10
2019-01-20T10:17:39.272Z,91.20
2019-01-20T10:20:19.100Z,91.30
2019-01-20T10:22:49.925Z,91.10
2019-01-20T10:25:20.508Z,91.10
2019-01-20T10:27:53.701Z,90.90
2019-01-20T10:30:32.292Z,90.80
2019-01-20T10:33:03.551Z,90.90
2019-01-20T10:35:44.947Z,91.10
2019-01-20T10:38:16.028Z,91.00
2019-01-20T10:40:46.573Z,91.20
2019-01-20T10:43:17.175Z,91.10
2019-01-20T10:45:47.837Z,90.90
2019-01-20T10:48:18.962Z,90.80
2019-01-20T10:50:49.928Z,90.70
2019-01-20T10:53:20.692Z,90.50
2019-01-20T10:55:51.785Z,90.40
2019-01-20T10:58:24.209Z,90.30
2019-01-20T11:00:57.507Z,90.30
2019-01-20T11:03:28.186Z,90.50
2019-01-20T11:05:58.876Z,90.20
2019-01-20T11:08:29.367Z,90.30
2019-01-20T11:10:59.890Z,90.20
2019-01-20T11:13:30.808Z,90.20
2019-01-20T11:16:01.838Z,90.20
2019-01-20T11:18:32.524Z,90.30
2019-01-20T11:21:03.128Z,90.30
2019-01-20T11:23:34.398Z,90.30
2019-01-20T11:26:05.191Z,90.30
2019-01-20T11:28:36.289Z,90.40
2019-01-20T11:31:06.948Z,90.70
2019-01-20T11:33:37.770Z,90.60
2019-01-20T11:36:08.438Z,90.50
2019-01-20T11:38:40.038Z,90.40
2019-01-20T11:41:10.518Z,90.30
2019-01-20T11:43:40.988Z,90.30
2019-01-20T11:46:11.592Z,90.30
2019-01-20T11:48:42.255Z,90.40
2019-01-20T11:51:12.698Z,90.40
2019-01-20T11:53:43.239Z,90.40
2019-01-20T11:56:13.666Z,90.40
2019-01-20T11:58:44.091Z,90.20
2019-01-20T12:01:15.148Z,90.10
2019-01-20T12:03:46.089Z,90.00
2019-01-20T12:06:16.796Z,90.00
2019-01-20T12:08:47.490Z,90.00
2019-01-20T12:11:17.990Z,90.00
2019-01-20T12:13:49.025Z,89.90
2019-01-20T12:16:20.226Z,90.00
2019-01-20T12:18:51.101Z,89.90
2019-01-20T12:21:21.696Z,90.00
2019-01-20T12:23:52.513Z,89.80
2019-01-20T12:26:23.505Z,89.50
2019-01-20T12:28:54.213Z,89.70
2019-01-20T12:31:24.690Z,89.70
2019-01-20T12:33:55.291Z,89.60
2019-01-20T12:36:26.031Z,89.50
2019-01-20T12:38:56.682Z,89.40
2019-01-20T12:41:27.363Z,89.30
2019-01-20T12:43:57.650Z,89.80
2019-01-20T12:46:28.763Z,89.10
2019-01-20T12:48:59.215Z,89.10
2019-01-20T12:51:30.131Z,88.90
2019-01-20T12:54:01.096Z,88.60
2019-01-20T12:56:31.752Z,88.70
2019-01-20T12:59:02.649Z,89.20
2019-01-20T13:01:33.456Z,89.20
2019-01-20T13:04:04.100Z,89.00
2019-01-20T13:06:34.998Z,88.90
2019-01-20T13:09:07.763Z,88.90
2019-01-20T13:11:38.244Z,89.00
2019-01-20T13:14:09.033Z,88.60
2019-01-20T13:16:39.681Z,88.30
2019-01-20T13:19:10.760Z,88.30
2019-01-20T13:21:43.834Z,88.40
2019-01-20T13:24:14.680Z,88.30
2019-01-20T13:26:45.369Z,88.10
2019-01-20T13:29:16.355Z,88.00
2019-01-20T13:31:47.068Z,88.20
2019-01-20T13:34:17.612Z,88.40
2019-01-20T13:36:48.562Z,88.60
2019-01-20T13:39:19.301Z,88.60
2019-01-20T13:41:49.809Z,88.70
2019-01-20T13:44:20.320Z,88.70
2019-01-20T13:46:50.953Z,89.00
2019-01-20T13:49:21.799Z,89.10
2019-01-20T13:51:55.689Z,89.30
2019-01-20T13:54:37.312Z,89.10
2019-01-20T13:57:09.870Z,89.00
2019-01-20T13:59:41.672Z,89.10
2019-01-20T14:02:12.468Z,89.10
2019-01-20T14:04:43.024Z,89.60
2019-01-20T14:07:13.574Z,89.60
2019-01-20T14:09:44.112Z,89.80
2019-01-20T14:12:14.860Z,89.70
2019-01-20T14:14:45.504Z,89.60
2019-01-20T14:17:15.987Z,89.80
2019-01-20T14:19:48.912Z,89.70
2019-01-20T14:22:22.425Z,89.80
2019-01-20T14:24:53.244Z,89.80
2019-01-20T14:27:24.014Z,89.90
2019-01-20T14:29:54.267Z,90.00
2019-01-20T14:32:24.944Z,90.00
2019-01-20T14:34:55.462Z,90.60
2019-01-20T14:37:26.433Z,90.50
2019-01-20T14:39:56.981Z,90.40
2019-01-20T14:42:28.106Z,90.20
2019-01-20T14:45:01.090Z,90.20
2019-01-20T14:47:31.276Z,90.10
2019-01-20T14:50:02.169Z,90.10
2019-01-20T14:52:33.182Z,90.00
2019-01-20T14:55:04.655Z,89.80
2019-01-20T14:57:35.070Z,89.70
2019-01-20T15:00:12.910Z,89.80
2019-01-20T15:02:43.454Z,89.70
2019-01-20T15:05:14.193Z,89.80
2019-01-20T15:07:45.004Z,89.80
2019-01-20T15:10:17.094Z,89.80
2019-01-20T15:12:47.843Z,89.80
2019-01-20T15:15:24.846Z,89.90
2019-01-20T15:17:56.496Z,89.80
2019-01-20T15:20:29.146Z,89.80
2019-01-20T15:23:02.650Z,89.80
2019-01-20T15:25:33.841Z,89.80
2019-01-20T15:28:04.755Z,89.80
2019-01-20T15:30:36.005Z,89.70
2019-01-20T15:33:06.960Z,89.70
2019-01-20T15:35:37.524Z,89.70
2019-01-20T15:38:08.435Z,89.90
2019-01-20T15:40:39.024Z,89.50
2019-01-20T15:43:09.792Z,89.50
2019-01-20T15:45:40.676Z,89.40
2019-01-20T15:48:11.468Z,89.50
2019-01-20T15:50:42.458Z,89.30
2019-01-20T15:53:13.435Z,89.30
2019-01-20T15:55:44.072Z,89.50
2019-01-20T15:58:14.961Z,89.50
2019-01-20T16:00:45.871Z,89.20
2019-01-20T16:03:16.517Z,89.20
2019-01-20T16:05:47.130Z,89.20
2019-01-20T16:08:17.813Z,89.20
2019-01-20T16:10:48.373Z,89.20
2019-01-20T16:13:18.891Z,88.80
2019-01-20T16:15:49.496Z,89.00
2019-01-20T16:18:20.564Z,88.60
2019-01-20T16:20:51.354Z,88.60
2019-01-20T16:23:21.964Z,88.60
2019-01-20T16:25:52.537Z,88.40
2019-01-20T16:28:23.535Z,88.60
2019-01-20T16:30:54.275Z,88.60
2019-01-20T16:33:24.988Z,88.40
2019-01-20T16:35:56.668Z,88.30
2019-01-20T16:38:27.347Z,88.40
2019-01-20T16:40:58.185Z,88.20
2019-01-20T16:43:29.916Z,88.20
2019-01-20T16:46:00.876Z,88.00
2019-01-20T16:48:31.337Z,87.80
2019-01-20T16:51:02.018Z,87.80
2019-01-20T16:53:33.077Z,87.60
2019-01-20T16:56:03.689Z,87.90
2019-01-20T16:58:34.870Z,88.40
2019-01-20T17:01:05.660Z,88.00
2019-01-20T17:03:36.630Z,87.80
2019-01-20T17:06:07.605Z,88.00
2019-01-20T17:08:38.278Z,88.10
2019-01-20T17:11:09.026Z,87.70
2019-01-20T17:13:39.531Z,87.80
2019-01-20T17:16:09.935Z,87.50
2019-01-20T17:18:40.810Z,87.50
2019-01-20T17:21:11.526Z,87.30
2019-01-20T17:23:42.278Z,87.60
2019-01-20T17:26:13.295Z,87.60
2019-01-20T17:28:43.895Z,87.90
2019-01-20T17:31:14.602Z,88.30
2019-01-20T17:33:45.280Z,87.60
2019-01-20T17:36:16.163Z,87.60
2019-01-20T17:38:48.258Z,87.50
2019-01-20T17:41:18.973Z,87.80
2019-01-20T17:43:49.593Z,87.70
2019-01-20T17:46:20.746Z,87.70
2019-01-20T17:48:51.310Z,88.00
2019-01-20T17:51:22.203Z,87.70
2019-01-20T17:53:52.651Z,87.90
2019-01-20T17:56:23.277Z,87.80
2019-01-20T17:58:54.198Z,88.00
2019-01-20T18:01:24.779Z,88.10
2019-01-20T18:03:55.988Z,87.80
2019-01-20T18:06:26.793Z,87.70
2019-01-20T18:08:57.802Z,87.50
2019-01-20T18:11:28.713Z,87.60
2019-01-20T18:13:59.352Z,87.50
2019-01-20T18:16:30.025Z,87.20
2019-01-20T18:19:01.087Z,87.50
2019-01-20T18:21:31.766Z,87.30
2019-01-20T18:24:02.763Z,87.60
2019-01-20T18:26:33.536Z,87.60
2019-01-20T18:29:06.261Z,87.80
2019-01-20T18:31:37.389Z,87.80
2019-01-20T18:34:08.299Z,87.50
2019-01-20T18:36:39.614Z,87.70
2019-01-20T18:39:10.254Z,87.60
2019-01-20T18:41:41.059Z,87.70
2019-01-20T18:44:11.826Z,87.80
2019-01-20T18:46:42.909Z,87.70
2019-01-20T18:49:13.748Z,87.60
2019-01-20T18:51:44.734Z,87.80
2019-01-20T18:54:15.457Z,87.80
2019-01-20T18:56:46.046Z,87.90
2019-01-20T18:59:16.640Z,87.90
2019-01-20T19:01:49.155Z,87.90
2019-01-20T19:04:20.934Z,88.10
2019-01-20T19:06:53.051Z,87.90
2019-01-20T19:09:29.554Z,88.50
2019-01-20T19:12:00.645Z,87.60
2019-01-20T19:14:31.427Z,87.80
2019-01-20T19:17:01.923Z,87.70
2019-01-20T19:19:32.874Z,87.90
2019-01-20T19:22:04.651Z,87.50
2019-01-20T19:24:36.277Z,87.80
2019-01-20T19:27:07.288Z,88.10
2019-01-20T19:29:38.230Z,87.70
2019-01-20T19:32:09.306Z,87.70
2019-01-20T19:34:40.886Z,87.60
2019-01-20T19:37:11.649Z,87.90
2019-01-20T19:39:42.266Z,87.90
2019-01-20T19:42:12.767Z,88.10
2019-01-20T19:44:43.440Z,87.70
2019-01-20T19:47:13.686Z,87.90
2019-01-20T19:49:44.485Z,88.00
2019-01-20T19:52:15.608Z,88.30
2019-01-20T19:54:46.077Z,88.10
2019-01-20T19:57:16.660Z,87.80
2019-01-20T19:59:47.340Z,87.90
2019-01-20T20:02:18.148Z,88.00
2019-01-20T20:04:48.815Z,88.00
2019-01-20T20:07:19.405Z,87.90
2019-01-20T20:09:50.075Z,88.00
2019-01-20T20:12:20.830Z,88.10
2019-01-20T20:14:51.540Z,88.30
2019-01-20T20:17:22.979Z,88.50
2019-01-20T20:19:54.009Z,88.40
2019-01-20T20:22:24.313Z,88.40
2019-01-20T20:24:54.688Z,88.50
2019-01-20T20:27:25.637Z,88.60
2019-01-20T20:29:56.476Z,88.70
2019-01-20T20:32:27.480Z,88.20
2019-01-20T20:34:57.920Z,88.40
2019-01-20T20:37:28.941Z,88.60
2019-01-20T20:39:59.531Z,88.60
2019-01-20T20:42:29.995Z,88.60
2019-01-20T20:45:00.720Z,88.40
2019-01-20T20:47:31.176Z,88.50
2019-01-20T20:50:01.864Z,88.50
2019-01-20T20:52:32.732Z,88.40
2019-01-20T20:55:03.439Z,88.50
2019-01-20T20:57:34.504Z,88.70
2019-01-20T21:00:19.967Z,88.60
2019-01-20T21:02:50.515Z,88.90
2019-01-20T21:05:21.435Z,88.90
2019-01-20T21:07:53.989Z,88.50
2019-01-20T21:10:25.071Z,88.40
2019-01-20T21:12:55.845Z,88.70
2019-01-20T21:15:26.618Z,88.50
2019-01-20T21:17:57.336Z,89.20
2019-01-20T21:20:27.761Z,88.80
2019-01-20T21:22:58.764Z,88.80
2019-01-20T21:25:29.534Z,88.70
2019-01-20T21:28:00.265Z,88.80
2019-01-20T21:30:30.848Z,88.40
2019-01-20T21:33:01.645Z,88.70
2019-01-20T21:35:32.133Z,88.90
2019-01-20T21:38:06.924Z,88.80
2019-01-20T21:40:35.279Z,88.90
2019-01-20T21:43:05.789Z,88.80
2019-01-20T21:45:36.529Z,88.70
2019-01-20T21:48:07.097Z,88.60
2019-01-20T21:50:38.034Z,88.70
2019-01-20T21:53:08.689Z,88.40
2019-01-20T21:55:39.376Z,88.60
2019-01-20T21:58:10.139Z,88.40
2019-01-20T22:00:40.927Z,88.40
2019-01-20T22:03:11.585Z,88.50
2019-01-20T22:05:42.387Z,88.60
2019-01-20T22:08:12.962Z,88.60
2019-01-20T22:10:43.568Z,88.80
2019-01-20T22:13:14.145Z,88.70
2019-01-20T22:15:44.808Z,88.60
2019-01-20T22:18:15.341Z,88.20
2019-01-20T22:20:45.875Z,88.50
2019-01-20T22:23:16.366Z,88.70
2019-01-20T22:25:47.156Z,88.50
2019-01-20T22:28:18.218Z,88.30
2019-01-20T22:30:48.856Z,88.40
2019-01-20T22:33:19.682Z,88.20
2019-01-20T22:35:52.121Z,88.80
2019-01-20T22:38:23.199Z,89.00
2019-01-20T22:40:54.244Z,88.60
2019-01-20T22:43:24.930Z,88.80
2019-01-20T22:45:55.344Z,88.70
2019-01-20T22:48:25.906Z,88.80
2019-01-20T22:50:56.322Z,88.70
2019-01-20T22:53:27.394Z,88.90
2019-01-20T22:55:58.038Z,89.00
2019-01-20T22:58:28.728Z,88.90
2019-01-20T23:01:00.355Z,88.80
2019-01-20T23:03:31.066Z,88.60
2019-01-20T23:06:01.764Z,88.60
2019-01-20T23:08:32.420Z,88.50
2019-01-20T23:11:03.030Z,88.70
2019-01-20T23:13:33.798Z,88.70
2019-01-20T23:16:04.520Z,88.80
2019-01-20T23:18:35.407Z,88.80
2019-01-20T23:21:06.212Z,88.90
2019-01-20T23:23:36.932Z,88.90
2019-01-20T23:26:07.668Z,89.20
2019-01-20T23:28:38.563Z,88.80
2019-01-20T23:31:09.232Z,88.50
2019-01-20T23:33:40.498Z,88.90
2019-01-20T23:36:11.322Z,89.60
2019-01-20T23:38:42.586Z,88.40
2019-01-20T23:41:13.150Z,88.70
2019-01-20T23:43:44.564Z,88.80
2019-01-20T23:46:15.783Z,88.70
2019-01-20T23:48:46.365Z,88.80
2019-01-20T23:51:17.656Z,88.60
2019-01-20T23:53:48.241Z,88.60
2019-01-20T23:56:18.948Z,88.60
2019-01-20T23:58:50.070Z,88.50
